Jacobus — OR3790 — position and weather

sailwx.info

Track history (hours):
 
Tides and Currents Weather Stations Pressure Air Temp Water Temp Dewpoint Dewpoint Depression Visibility Wind Speed Wind Dir Waves Ship Positions

Jacobus

Last reported at 2015-May-13 10:31 UTC. Time now 2015-May-26 01:40 UTC.
Position N 39°30' E 002°45'.
Warning: this ship's position is 12 days out of date.

Length 17 m.

Type: Pleasure craft. MMSI: 205379010.

Date/timePositionNaut miles runAvg speedWind from/ knotsBaromVisibWave heightAir tempDewpointWater temp
2015-May-13 10:31N 39°30' E 002°45'0 0.0
2015-May-11 11:33N 39°30' E 002°45'4 4.3
2015-May-11 10:33N 39°32' E 002°40'1 1.5
2015-May-11 09:34N 39°33' E 002°38'3 2.5
2015-May-11 08:31N 39°32' E 002°35'0 0.0
2015-May-11 07:33N 39°32' E 002°35'0 0.0
2015-May-11 06:33N 39°32' E 002°35'0 0.0
2015-May-11 05:30N 39°32' E 002°35'0 0.0
2015-May-11 04:33N 39°32' E 002°35'0 0.0
2015-May-11 03:33N 39°32' E 002°35'0 0.0
2015-May-11 02:33N 39°32' E 002°35'0 0.0
2015-May-11 01:33N 39°32' E 002°35'0 0.0
2015-May-11 00:32N 39°32' E 002°35'0 0.0
2015-May-10 23:33N 39°32' E 002°35'1 0.6
2015-May-10 22:33N 39°32' E 002°35'0 0.0
2015-May-10 21:33N 39°32' E 002°35'0 0.0
2015-May-10 20:33N 39°32' E 002°35'0 0.0
2015-May-10 19:33N 39°32' E 002°35'2 2.2
2015-May-10 18:33N 39°30' E 002°37'1 1.4
2015-May-10 17:33N 39°29' E 002°38'4 3.4
2015-May-10 16:31N 39°32' E 002°35'0 0.0
2015-May-10 15:28N 39°32' E 002°35'1 0.9
2015-May-10 14:33N 39°31' E 002°34'3 3.2
2015-May-10 13:33N 39°28' E 002°33'2 1.5
2015-May-10 12:27N 39°27' E 002°31'2 2.4
2015-May-10 11:28N 39°28' E 002°28'4 0.2
2015-May-09 16:32N 39°30' E 002°24'4 0.9
2015-May-09 12:09N 39°28' E 002°28'2 3.2
2015-May-09 11:32N 39°27' E 002°31'1 1.2
2015-May-09 10:33N 39°28' E 002°31'0 0.0
2015-May-09 09:16N 39°28' E 002°31'4 5.6
2015-May-09 08:33N 39°29' E 002°36'2 2.3
2015-May-09 07:33N 39°31' E 002°36'1 1.0
2015-May-09 06:33N 39°32' E 002°35'0 0.0
2015-May-09 05:33N 39°32' E 002°35'0 0.0
2015-May-09 04:33N 39°32' E 002°35'0 0.0
2015-May-09 03:33N 39°32' E 002°35'0 0.0
2015-May-09 02:33N 39°32' E 002°35'0 0.0
2015-May-09 01:33N 39°32' E 002°35'0 0.0
2015-May-09 00:31N 39°32' E 002°35'0 0.0
2015-May-08 23:33N 39°32' E 002°35'0 0.0
2015-May-08 22:33N 39°32' E 002°35'0 0.0
2015-May-08 21:33N 39°32' E 002°35'0 0.0
2015-May-08 20:32N 39°32' E 002°35'0 0.0
2015-May-08 19:32N 39°32' E 002°35'1 0.6
2015-May-08 18:33N 39°32' E 002°35'2 2.4
2015-May-08 17:34N 39°30' E 002°32'1 0.9
2015-May-08 16:33N 39°29' E 002°32'0 0.3
2015-May-08 15:33N 39°29' E 002°32'1 1.3
2015-May-08 14:33N 39°28' E 002°33'3 2.8
2015-May-08 13:33N 39°31' E 002°36'1 1.1
2015-May-08 12:31N 39°32' E 002°35'0 0.0
2015-May-08 11:31N 39°32' E 002°35'0 0.1
2015-May-08 10:33N 39°32' E 002°35'4 4.4
2015-May-08 09:33N 39°31' E 002°41'3 3.1
2015-May-08 08:31N 39°30' E 002°45'0 0.0
2015-May-08 07:31N 39°30' E 002°45'0 0.0
2015-May-08 06:31N 39°30' E 002°45'0 0.0
2015-May-08 05:31N 39°30' E 002°45'0 0.0
2015-May-08 04:31N 39°30' E 002°45'0 0.0
2015-May-08 03:31N 39°30' E 002°45'0 0.0
2015-May-08 02:31N 39°30' E 002°45'0 0.0
2015-May-08 01:31N 39°30' E 002°45'0 0.0
2015-May-08 00:31N 39°30' E 002°45'0 0.0
2015-May-07 23:31N 39°30' E 002°45'0 0.0
2015-May-07 22:31N 39°30' E 002°45'0 0.0
2015-May-07 21:31N 39°30' E 002°45'0 0.0
2015-May-07 20:31N 39°30' E 002°45'0 0.0
2015-May-07 19:31N 39°30' E 002°45'0 0.0
2015-May-07 17:15N 39°30' E 002°45'0 0.0
2015-May-07 16:33N 39°30' E 002°45'  
Track history (hours):
 
Tides and Currents Weather Stations Pressure Air Temp Water Temp Dewpoint Dewpoint Depression Visibility Wind Speed Wind Dir Waves Ship Positions

Jacobus

Last reported at 2015-May-13 10:31 UTC. Time now 2015-May-26 01:40 UTC.
Position N 39°30' E 002°45'.
Warning: this ship's position is 12 days out of date.

Length 17 m.

Type: Pleasure craft. MMSI: 205379010.

Date/timePositionNaut miles runAvg speedWind from/ knotsBaromVisibWave heightAir tempDewpointWater temp
2015-May-13 10:31N 39°30' E 002°45'0 0.0
2015-May-11 11:33N 39°30' E 002°45'4 4.3
2015-May-11 10:33N 39°32' E 002°40'1 1.5
2015-May-11 09:34N 39°33' E 002°38'3 2.5
2015-May-11 08:31N 39°32' E 002°35'0 0.0
2015-May-11 07:33N 39°32' E 002°35'0 0.0
2015-May-11 06:33N 39°32' E 002°35'0 0.0
2015-May-11 05:30N 39°32' E 002°35'0 0.0
2015-May-11 04:33N 39°32' E 002°35'0 0.0
2015-May-11 03:33N 39°32' E 002°35'0 0.0
2015-May-11 02:33N 39°32' E 002°35'0 0.0
2015-May-11 01:33N 39°32' E 002°35'0 0.0
2015-May-11 00:32N 39°32' E 002°35'0 0.0
2015-May-10 23:33N 39°32' E 002°35'1 0.6
2015-May-10 22:33N 39°32' E 002°35'0 0.0
2015-May-10 21:33N 39°32' E 002°35'0 0.0
2015-May-10 20:33N 39°32' E 002°35'0 0.0
2015-May-10 19:33N 39°32' E 002°35'2 2.2
2015-May-10 18:33N 39°30' E 002°37'1 1.4
2015-May-10 17:33N 39°29' E 002°38'4 3.4
2015-May-10 16:31N 39°32' E 002°35'0 0.0
2015-May-10 15:28N 39°32' E 002°35'1 0.9
2015-May-10 14:33N 39°31' E 002°34'3 3.2
2015-May-10 13:33N 39°28' E 002°33'2 1.5
2015-May-10 12:27N 39°27' E 002°31'2 2.4
2015-May-10 11:28N 39°28' E 002°28'4 0.2
2015-May-09 16:32N 39°30' E 002°24'4 0.9
2015-May-09 12:09N 39°28' E 002°28'2 3.2
2015-May-09 11:32N 39°27' E 002°31'1 1.2
2015-May-09 10:33N 39°28' E 002°31'0 0.0
2015-May-09 09:16N 39°28' E 002°31'4 5.6
2015-May-09 08:33N 39°29' E 002°36'2 2.3
2015-May-09 07:33N 39°31' E 002°36'1 1.0
2015-May-09 06:33N 39°32' E 002°35'0 0.0
2015-May-09 05:33N 39°32' E 002°35'0 0.0
2015-May-09 04:33N 39°32' E 002°35'0 0.0
2015-May-09 03:33N 39°32' E 002°35'0 0.0
2015-May-09 02:33N 39°32' E 002°35'0 0.0
2015-May-09 01:33N 39°32' E 002°35'0 0.0
2015-May-09 00:31N 39°32' E 002°35'0 0.0
2015-May-08 23:33N 39°32' E 002°35'0 0.0
2015-May-08 22:33N 39°32' E 002°35'0 0.0
2015-May-08 21:33N 39°32' E 002°35'0 0.0
2015-May-08 20:32N 39°32' E 002°35'0 0.0
2015-May-08 19:32N 39°32' E 002°35'1 0.6
2015-May-08 18:33N 39°32' E 002°35'2 2.4
2015-May-08 17:34N 39°30' E 002°32'1 0.9
2015-May-08 16:33N 39°29' E 002°32'0 0.3
2015-May-08 15:33N 39°29' E 002°32'1 1.3
2015-May-08 14:33N 39°28' E 002°33'3 2.8
2015-May-08 13:33N 39°31' E 002°36'1 1.1
2015-May-08 12:31N 39°32' E 002°35'0 0.0
2015-May-08 11:31N 39°32' E 002°35'0 0.1
2015-May-08 10:33N 39°32' E 002°35'4 4.4
2015-May-08 09:33N 39°31' E 002°41'3 3.1
2015-May-08 08:31N 39°30' E 002°45'0 0.0
2015-May-08 07:31N 39°30' E 002°45'0 0.0
2015-May-08 06:31N 39°30' E 002°45'0 0.0
2015-May-08 05:31N 39°30' E 002°45'0 0.0
2015-May-08 04:31N 39°30' E 002°45'0 0.0
2015-May-08 03:31N 39°30' E 002°45'0 0.0
2015-May-08 02:31N 39°30' E 002°45'0 0.0
2015-May-08 01:31N 39°30' E 002°45'0 0.0
2015-May-08 00:31N 39°30' E 002°45'0 0.0
2015-May-07 23:31N 39°30' E 002°45'0 0.0
2015-May-07 22:31N 39°30' E 002°45'0 0.0
2015-May-07 21:31N 39°30' E 002°45'0 0.0
2015-May-07 20:31N 39°30' E 002°45'0 0.0
2015-May-07 19:31N 39°30' E 002°45'0 0.0
2015-May-07 17:15N 39°30' E 002°45'0 0.0
2015-May-07 16:33N 39°30' E 002°45'  

Dump ship's entire track history